sensor_id;sensor_type;location;lat;lon;timestamp;P1;durP1;ratioP1;P2;durP2;ratioP2
59830;SDS011;45711;50.108;13.712;2023-11-25T00:01:50;2.15;;;0.70;;
59830;SDS011;45711;50.108;13.712;2023-11-25T00:04:17;1.30;;;0.60;;
59830;SDS011;45711;50.108;13.712;2023-11-25T00:06:44;0.90;;;0.52;;
59830;SDS011;45711;50.108;13.712;2023-11-25T00:09:11;3.55;;;0.57;;
59830;SDS011;45711;50.108;13.712;2023-11-25T00:11:40;1.58;;;0.82;;
59830;SDS011;45711;50.108;13.712;2023-11-25T00:14:07;3.05;;;0.77;;
59830;SDS011;45711;50.108;13.712;2023-11-25T00:16:34;1.15;;;0.40;;
59830;SDS011;45711;50.108;13.712;2023-11-25T00:19:00;3.72;;;0.85;;
59830;SDS011;45711;50.108;13.712;2023-11-25T00:21:25;0.93;;;0.30;;
59830;SDS011;45711;50.108;13.712;2023-11-25T00:23:51;0.57;;;0.32;;
59830;SDS011;45711;50.108;13.712;2023-11-25T00:26:18;1.25;;;0.30;;
59830;SDS011;45711;50.108;13.712;2023-11-25T00:28:44;0.30;;;0.20;;
59830;SDS011;45711;50.108;13.712;2023-11-25T00:31:10;0.55;;;0.20;;
59830;SDS011;45711;50.108;13.712;2023-11-25T00:33:39;0.50;;;0.30;;
59830;SDS011;45711;50.108;13.712;2023-11-25T00:36:05;0.20;;;0.20;;
59830;SDS011;45711;50.108;13.712;2023-11-25T00:38:31;0.38;;;0.38;;
59830;SDS011;45711;50.108;13.712;2023-11-25T00:40:57;1.02;;;0.22;;
59830;SDS011;45711;50.108;13.712;2023-11-25T00:43:24;2.85;;;0.40;;
59830;SDS011;45711;50.108;13.712;2023-11-25T00:45:50;3.08;;;0.50;;
59830;SDS011;45711;50.108;13.712;2023-11-25T00:48:16;1.50;;;0.50;;
59830;SDS011;45711;50.108;13.712;2023-11-25T00:50:42;1.05;;;0.30;;
59830;SDS011;45711;50.108;13.712;2023-11-25T00:53:09;0.50;;;0.30;;
59830;SDS011;45711;50.108;13.712;2023-11-25T00:55:35;2.88;;;0.50;;
59830;SDS011;45711;50.108;13.712;2023-11-25T00:58:00;0.73;;;0.20;;
59830;SDS011;45711;50.108;13.712;2023-11-25T01:00:30;2.58;;;0.30;;
59830;SDS011;45711;50.108;13.712;2023-11-25T01:02:56;0.90;;;0.60;;
59830;SDS011;45711;50.108;13.712;2023-11-25T01:05:21;2.35;;;0.50;;
59830;SDS011;45711;50.108;13.712;2023-11-25T01:07:48;0.90;;;0.45;;
59830;SDS011;45711;50.108;13.712;2023-11-25T01:10:14;1.13;;;0.50;;
59830;SDS011;45711;50.108;13.712;2023-11-25T01:12:39;1.20;;;0.30;;
59830;SDS011;45711;50.108;13.712;2023-11-25T01:15:05;1.58;;;0.43;;
59830;SDS011;45711;50.108;13.712;2023-11-25T01:17:33;4.53;;;0.60;;
59830;SDS011;45711;50.108;13.712;2023-11-25T01:19:59;0.80;;;0.40;;
59830;SDS011;45711;50.108;13.712;2023-11-25T01:22:24;0.75;;;0.40;;
59830;SDS011;45711;50.108;13.712;2023-11-25T01:24:50;1.45;;;0.30;;
59830;SDS011;45711;50.108;13.712;2023-11-25T01:27:16;0.77;;;0.50;;
59830;SDS011;45711;50.108;13.712;2023-11-25T01:29:42;0.73;;;0.40;;
59830;SDS011;45711;50.108;13.712;2023-11-25T01:32:07;1.25;;;0.40;;
59830;SDS011;45711;50.108;13.712;2023-11-25T01:34:35;2.33;;;0.50;;
59830;SDS011;45711;50.108;13.712;2023-11-25T01:37:01;0.70;;;0.32;;
59830;SDS011;45711;50.108;13.712;2023-11-25T01:39:27;1.45;;;0.50;;
59830;SDS011;45711;50.108;13.712;2023-11-25T01:41:52;0.30;;;0.22;;
59830;SDS011;45711;50.108;13.712;2023-11-25T01:44:19;0.40;;;0.28;;
59830;SDS011;45711;50.108;13.712;2023-11-25T01:46:47;0.70;;;0.32;;
59830;SDS011;45711;50.108;13.712;2023-11-25T01:49:14;0.75;;;0.40;;
59830;SDS011;45711;50.108;13.712;2023-11-25T01:51:49;0.63;;;0.30;;
59830;SDS011;45711;50.108;13.712;2023-11-25T01:54:17;0.85;;;0.40;;
59830;SDS011;45711;50.108;13.712;2023-11-25T01:56:45;0.35;;;0.30;;
59830;SDS011;45711;50.108;13.712;2023-11-25T01:59:13;0.50;;;0.40;;
59830;SDS011;45711;50.108;13.712;2023-11-25T02:01:40;0.68;;;0.20;;
59830;SDS011;45711;50.108;13.712;2023-11-25T02:04:07;1.00;;;0.47;;
59830;SDS011;45711;50.108;13.712;2023-11-25T02:06:33;0.65;;;0.40;;
59830;SDS011;45711;50.108;13.712;2023-11-25T02:09:01;0.55;;;0.30;;
59830;SDS011;45711;50.108;13.712;2023-11-25T02:11:28;2.25;;;0.38;;
59830;SDS011;45711;50.108;13.712;2023-11-25T02:13:53;0.65;;;0.30;;
59830;SDS011;45711;50.108;13.712;2023-11-25T02:16:19;0.60;;;0.40;;
59830;SDS011;45711;50.108;13.712;2023-11-25T02:18:45;0.57;;;0.30;;
59830;SDS011;45711;50.108;13.712;2023-11-25T02:21:11;1.42;;;0.40;;
59830;SDS011;45711;50.108;13.712;2023-11-25T02:23:38;0.88;;;0.50;;
59830;SDS011;45711;50.108;13.712;2023-11-25T02:26:04;0.98;;;0.40;;
59830;SDS011;45711;50.108;13.712;2023-11-25T02:28:30;0.70;;;0.35;;
59830;SDS011;45711;50.108;13.712;2023-11-25T02:30:56;1.48;;;0.32;;
59830;SDS011;45711;50.108;13.712;2023-11-25T02:33:22;1.05;;;0.30;;
59830;SDS011;45711;50.108;13.712;2023-11-25T02:35:47;1.10;;;0.40;;
59830;SDS011;45711;50.108;13.712;2023-11-25T02:38:14;1.35;;;0.30;;
59830;SDS011;45711;50.108;13.712;2023-11-25T02:40:43;0.30;;;0.20;;
59830;SDS011;45711;50.108;13.712;2023-11-25T02:43:09;0.60;;;0.20;;
59830;SDS011;45711;50.108;13.712;2023-11-25T02:45:36;0.88;;;0.28;;
59830;SDS011;45711;50.108;13.712;2023-11-25T02:48:03;1.55;;;0.30;;
59830;SDS011;45711;50.108;13.712;2023-11-25T02:50:33;0.20;;;0.10;;
59830;SDS011;45711;50.108;13.712;2023-11-25T02:52:58;1.10;;;0.38;;
59830;SDS011;45711;50.108;13.712;2023-11-25T02:55:26;0.57;;;0.30;;
59830;SDS011;45711;50.108;13.712;2023-11-25T02:57:53;1.05;;;0.30;;
59830;SDS011;45711;50.108;13.712;2023-11-25T03:00:19;0.38;;;0.22;;
59830;SDS011;45711;50.108;13.712;2023-11-25T03:02:48;4.28;;;0.68;;
59830;SDS011;45711;50.108;13.712;2023-11-25T03:05:14;1.60;;;0.40;;
59830;SDS011;45711;50.108;13.712;2023-11-25T03:07:41;2.85;;;0.35;;
59830;SDS011;45711;50.108;13.712;2023-11-25T03:10:07;0.95;;;0.60;;
59830;SDS011;45711;50.108;13.712;2023-11-25T03:12:34;1.23;;;0.45;;
59830;SDS011;45711;50.108;13.712;2023-11-25T03:15:01;2.08;;;0.40;;
59830;SDS011;45711;50.108;13.712;2023-11-25T03:17:27;2.10;;;0.60;;
59830;SDS011;45711;50.108;13.712;2023-11-25T03:19:54;0.65;;;0.40;;
59830;SDS011;45711;50.108;13.712;2023-11-25T03:22:19;1.98;;;0.50;;
59830;SDS011;45711;50.108;13.712;2023-11-25T03:24:45;2.63;;;0.60;;
59830;SDS011;45711;50.108;13.712;2023-11-25T03:27:11;1.30;;;0.60;;
59830;SDS011;45711;50.108;13.712;2023-11-25T03:29:38;2.05;;;0.40;;
59830;SDS011;45711;50.108;13.712;2023-11-25T03:32:05;1.27;;;0.47;;
59830;SDS011;45711;50.108;13.712;2023-11-25T03:34:32;2.67;;;0.40;;
59830;SDS011;45711;50.108;13.712;2023-11-25T03:36:58;3.67;;;0.70;;
59830;SDS011;45711;50.108;13.712;2023-11-25T03:39:26;1.10;;;0.40;;
59830;SDS011;45711;50.108;13.712;2023-11-25T03:41:52;2.63;;;0.50;;
59830;SDS011;45711;50.108;13.712;2023-11-25T03:44:17;3.63;;;0.50;;
59830;SDS011;45711;50.108;13.712;2023-11-25T03:46:43;1.83;;;0.47;;
59830;SDS011;45711;50.108;13.712;2023-11-25T03:49:10;1.40;;;0.47;;
59830;SDS011;45711;50.108;13.712;2023-11-25T03:51:37;1.23;;;0.60;;
59830;SDS011;45711;50.108;13.712;2023-11-25T03:54:02;4.20;;;0.60;;
59830;SDS011;45711;50.108;13.712;2023-11-25T03:56:28;4.18;;;0.57;;
59830;SDS011;45711;50.108;13.712;2023-11-25T03:58:55;2.08;;;0.43;;
59830;SDS011;45711;50.108;13.712;2023-11-25T04:01:20;2.40;;;0.50;;
59830;SDS011;45711;50.108;13.712;2023-11-25T04:03:46;0.98;;;0.45;;
59830;SDS011;45711;50.108;13.712;2023-11-25T04:06:13;2.70;;;0.52;;
59830;SDS011;45711;50.108;13.712;2023-11-25T04:08:39;2.47;;;0.50;;
59830;SDS011;45711;50.108;13.712;2023-11-25T04:11:05;1.65;;;0.50;;
59830;SDS011;45711;50.108;13.712;2023-11-25T04:13:31;3.15;;;0.60;;
59830;SDS011;45711;50.108;13.712;2023-11-25T04:15:56;1.52;;;0.57;;
59830;SDS011;45711;50.108;13.712;2023-11-25T04:18:22;1.52;;;0.60;;
59830;SDS011;45711;50.108;13.712;2023-11-25T04:20:47;2.67;;;0.65;;
59830;SDS011;45711;50.108;13.712;2023-11-25T04:23:14;2.08;;;0.65;;
59830;SDS011;45711;50.108;13.712;2023-11-25T04:25:41;1.52;;;0.45;;
59830;SDS011;45711;50.108;13.712;2023-11-25T04:28:07;1.42;;;0.63;;
59830;SDS011;45711;50.108;13.712;2023-11-25T04:30:34;1.67;;;0.45;;
59830;SDS011;45711;50.108;13.712;2023-11-25T04:33:00;2.53;;;0.50;;
59830;SDS011;45711;50.108;13.712;2023-11-25T04:35:25;1.70;;;0.50;;
59830;SDS011;45711;50.108;13.712;2023-11-25T04:37:51;6.18;;;0.90;;
59830;SDS011;45711;50.108;13.712;2023-11-25T04:40:21;2.65;;;0.50;;
59830;SDS011;45711;50.108;13.712;2023-11-25T04:42:46;4.00;;;1.05;;
59830;SDS011;45711;50.108;13.712;2023-11-25T04:45:13;2.17;;;0.50;;
59830;SDS011;45711;50.108;13.712;2023-11-25T04:47:43;1.90;;;0.80;;
59830;SDS011;45711;50.108;13.712;2023-11-25T04:50:09;0.93;;;0.60;;
59830;SDS011;45711;50.108;13.712;2023-11-25T04:52:36;3.40;;;1.00;;
59830;SDS011;45711;50.108;13.712;2023-11-25T04:55:01;2.22;;;0.50;;
59830;SDS011;45711;50.108;13.712;2023-11-25T04:57:29;2.63;;;0.98;;
59830;SDS011;45711;50.108;13.712;2023-11-25T04:59:55;3.63;;;0.90;;
59830;SDS011;45711;50.108;13.712;2023-11-25T05:02:20;2.22;;;0.85;;
59830;SDS011;45711;50.108;13.712;2023-11-25T05:04:46;3.97;;;1.10;;
59830;SDS011;45711;50.108;13.712;2023-11-25T05:07:11;2.05;;;0.93;;
59830;SDS011;45711;50.108;13.712;2023-11-25T05:09:37;1.85;;;0.57;;
59830;SDS011;45711;50.108;13.712;2023-11-25T05:12:03;2.47;;;0.70;;
59830;SDS011;45711;50.108;13.712;2023-11-25T05:14:31;2.47;;;0.80;;
59830;SDS011;45711;50.108;13.712;2023-11-25T05:16:56;2.03;;;0.80;;
59830;SDS011;45711;50.108;13.712;2023-11-25T05:19:22;3.42;;;0.88;;
59830;SDS011;45711;50.108;13.712;2023-11-25T05:21:48;2.05;;;0.70;;
59830;SDS011;45711;50.108;13.712;2023-11-25T05:24:14;2.78;;;0.80;;
59830;SDS011;45711;50.108;13.712;2023-11-25T05:26:40;3.35;;;0.60;;
59830;SDS011;45711;50.108;13.712;2023-11-25T05:29:05;2.33;;;0.68;;
59830;SDS011;45711;50.108;13.712;2023-11-25T05:31:33;2.13;;;0.80;;
59830;SDS011;45711;50.108;13.712;2023-11-25T05:33:59;3.60;;;0.82;;
59830;SDS011;45711;50.108;13.712;2023-11-25T05:36:24;2.42;;;0.82;;
59830;SDS011;45711;50.108;13.712;2023-11-25T05:38:50;2.63;;;1.05;;
59830;SDS011;45711;50.108;13.712;2023-11-25T05:41:15;4.65;;;0.90;;
59830;SDS011;45711;50.108;13.712;2023-11-25T05:43:42;3.30;;;0.70;;
59830;SDS011;45711;50.108;13.712;2023-11-25T05:46:19;2.35;;;0.55;;
59830;SDS011;45711;50.108;13.712;2023-11-25T05:48:46;2.80;;;0.80;;
59830;SDS011;45711;50.108;13.712;2023-11-25T05:51:12;0.85;;;0.50;;
59830;SDS011;45711;50.108;13.712;2023-11-25T05:53:38;2.00;;;0.70;;
59830;SDS011;45711;50.108;13.712;2023-11-25T05:56:03;1.67;;;0.70;;
59830;SDS011;45711;50.108;13.712;2023-11-25T05:58:29;2.25;;;0.70;;
59830;SDS011;45711;50.108;13.712;2023-11-25T06:00:55;0.95;;;0.50;;
59830;SDS011;45711;50.108;13.712;2023-11-25T06:03:21;3.83;;;0.80;;
59830;SDS011;45711;50.108;13.712;2023-11-25T06:05:49;1.35;;;0.55;;
59830;SDS011;45711;50.108;13.712;2023-11-25T06:08:15;2.17;;;0.60;;
59830;SDS011;45711;50.108;13.712;2023-11-25T06:10:40;2.35;;;0.60;;
59830;SDS011;45711;50.108;13.712;2023-11-25T06:13:06;1.67;;;0.82;;
59830;SDS011;45711;50.108;13.712;2023-11-25T06:15:32;1.58;;;0.95;;
59830;SDS011;45711;50.108;13.712;2023-11-25T06:17:57;1.98;;;0.77;;
59830;SDS011;45711;50.108;13.712;2023-11-25T06:20:23;1.90;;;0.70;;
59830;SDS011;45711;50.108;13.712;2023-11-25T06:22:51;1.27;;;0.68;;
59830;SDS011;45711;50.108;13.712;2023-11-25T06:25:17;2.63;;;1.15;;
59830;SDS011;45711;50.108;13.712;2023-11-25T06:27:43;6.18;;;0.80;;
59830;SDS011;45711;50.108;13.712;2023-11-25T06:30:09;2.08;;;0.60;;
59830;SDS011;45711;50.108;13.712;2023-11-25T06:32:35;3.10;;;0.80;;
59830;SDS011;45711;50.108;13.712;2023-11-25T06:35:02;2.22;;;0.88;;
59830;SDS011;45711;50.108;13.712;2023-11-25T06:37:29;1.48;;;0.82;;
59830;SDS011;45711;50.108;13.712;2023-11-25T06:39:56;1.10;;;0.70;;
59830;SDS011;45711;50.108;13.712;2023-11-25T06:42:22;2.17;;;0.90;;
59830;SDS011;45711;50.108;13.712;2023-11-25T06:44:50;1.27;;;0.80;;
59830;SDS011;45711;50.108;13.712;2023-11-25T06:47:16;0.63;;;0.60;;
59830;SDS011;45711;50.108;13.712;2023-11-25T06:49:43;4.40;;;1.20;;
59830;SDS011;45711;50.108;13.712;2023-11-25T06:52:10;3.72;;;0.77;;
59830;SDS011;45711;50.108;13.712;2023-11-25T06:54:35;1.65;;;1.00;;
59830;SDS011;45711;50.108;13.712;2023-11-25T06:57:02;7.45;;;1.17;;
59830;SDS011;45711;50.108;13.712;2023-11-25T06:59:29;1.63;;;0.98;;
59830;SDS011;45711;50.108;13.712;2023-11-25T07:01:54;4.30;;;1.33;;
59830;SDS011;45711;50.108;13.712;2023-11-25T07:04:20;2.75;;;1.20;;
59830;SDS011;45711;50.108;13.712;2023-11-25T07:06:46;4.93;;;1.48;;
59830;SDS011;45711;50.108;13.712;2023-11-25T07:09:12;3.13;;;1.35;;
59830;SDS011;45711;50.108;13.712;2023-11-25T07:11:39;2.20;;;1.25;;
59830;SDS011;45711;50.108;13.712;2023-11-25T07:14:06;7.65;;;1.80;;
59830;SDS011;45711;50.108;13.712;2023-11-25T07:16:33;3.95;;;1.05;;
59830;SDS011;45711;50.108;13.712;2023-11-25T07:18:59;2.75;;;1.30;;
59830;SDS011;45711;50.108;13.712;2023-11-25T07:21:25;2.80;;;1.33;;
59830;SDS011;45711;50.108;13.712;2023-11-25T07:23:51;2.80;;;1.40;;
59830;SDS011;45711;50.108;13.712;2023-11-25T07:26:17;3.00;;;1.60;;
59830;SDS011;45711;50.108;13.712;2023-11-25T07:28:43;2.60;;;1.13;;
59830;SDS011;45711;50.108;13.712;2023-11-25T07:31:10;4.97;;;1.58;;
59830;SDS011;45711;50.108;13.712;2023-11-25T07:33:36;3.70;;;1.55;;
59830;SDS011;45711;50.108;13.712;2023-11-25T07:36:01;3.08;;;1.35;;
59830;SDS011;45711;50.108;13.712;2023-11-25T07:38:28;3.90;;;1.45;;
59830;SDS011;45711;50.108;13.712;2023-11-25T07:40:53;3.95;;;1.20;;
59830;SDS011;45711;50.108;13.712;2023-11-25T07:43:19;7.07;;;1.25;;
59830;SDS011;45711;50.108;13.712;2023-11-25T07:45:45;2.35;;;1.23;;
59830;SDS011;45711;50.108;13.712;2023-11-25T07:48:12;5.15;;;1.40;;
59830;SDS011;45711;50.108;13.712;2023-11-25T07:50:38;2.72;;;1.05;;
59830;SDS011;45711;50.108;13.712;2023-11-25T07:53:05;4.53;;;1.30;;
59830;SDS011;45711;50.108;13.712;2023-11-25T07:55:32;7.30;;;1.17;;
59830;SDS011;45711;50.108;13.712;2023-11-25T07:57:57;3.05;;;1.30;;
59830;SDS011;45711;50.108;13.712;2023-11-25T08:00:23;3.30;;;1.20;;
59830;SDS011;45711;50.108;13.712;2023-11-25T08:02:50;2.70;;;0.90;;
59830;SDS011;45711;50.108;13.712;2023-11-25T08:05:22;2.50;;;1.00;;
59830;SDS011;45711;50.108;13.712;2023-11-25T08:07:48;2.42;;;0.90;;
59830;SDS011;45711;50.108;13.712;2023-11-25T08:10:13;2.85;;;1.08;;
59830;SDS011;45711;50.108;13.712;2023-11-25T08:12:41;4.15;;;1.25;;
59830;SDS011;45711;50.108;13.712;2023-11-25T08:15:07;4.78;;;1.10;;
59830;SDS011;45711;50.108;13.712;2023-11-25T08:17:34;3.67;;;1.13;;
59830;SDS011;45711;50.108;13.712;2023-11-25T08:20:00;4.18;;;1.25;;
59830;SDS011;45711;50.108;13.712;2023-11-25T08:22:27;5.68;;;1.60;;
59830;SDS011;45711;50.108;13.712;2023-11-25T08:24:55;4.95;;;1.48;;
59830;SDS011;45711;50.108;13.712;2023-11-25T08:27:22;3.30;;;1.13;;
59830;SDS011;45711;50.108;13.712;2023-11-25T08:29:48;3.08;;;1.35;;
59830;SDS011;45711;50.108;13.712;2023-11-25T08:32:13;3.72;;;1.45;;
59830;SDS011;45711;50.108;13.712;2023-11-25T08:34:39;3.25;;;1.23;;
59830;SDS011;45711;50.108;13.712;2023-11-25T08:37:04;3.15;;;1.10;;
59830;SDS011;45711;50.108;13.712;2023-11-25T08:39:34;4.82;;;1.50;;
59830;SDS011;45711;50.108;13.712;2023-11-25T08:42:01;3.65;;;1.67;;
59830;SDS011;45711;50.108;13.712;2023-11-25T08:44:27;3.35;;;1.70;;
59830;SDS011;45711;50.108;13.712;2023-11-25T08:46:53;5.35;;;1.73;;
59830;SDS011;45711;50.108;13.712;2023-11-25T08:49:21;4.38;;;1.25;;
59830;SDS011;45711;50.108;13.712;2023-11-25T08:51:49;4.18;;;1.10;;
59830;SDS011;45711;50.108;13.712;2023-11-25T08:54:16;6.75;;;1.65;;
59830;SDS011;45711;50.108;13.712;2023-11-25T08:56:47;3.25;;;1.27;;
59830;SDS011;45711;50.108;13.712;2023-11-25T08:59:13;2.33;;;1.10;;
59830;SDS011;45711;50.108;13.712;2023-11-25T09:01:43;5.45;;;1.08;;
59830;SDS011;45711;50.108;13.712;2023-11-25T09:04:09;2.55;;;1.08;;
59830;SDS011;45711;50.108;13.712;2023-11-25T09:06:41;3.90;;;1.10;;
59830;SDS011;45711;50.108;13.712;2023-11-25T09:09:07;5.40;;;1.13;;
59830;SDS011;45711;50.108;13.712;2023-11-25T09:11:34;5.65;;;1.30;;
59830;SDS011;45711;50.108;13.712;2023-11-25T09:14:01;2.78;;;1.10;;
59830;SDS011;45711;50.108;13.712;2023-11-25T09:16:29;3.55;;;1.27;;
59830;SDS011;45711;50.108;13.712;2023-11-25T09:18:55;3.28;;;1.10;;
59830;SDS011;45711;50.108;13.712;2023-11-25T09:21:20;3.63;;;1.30;;
59830;SDS011;45711;50.108;13.712;2023-11-25T09:23:46;6.15;;;1.58;;
59830;SDS011;45711;50.108;13.712;2023-11-25T09:26:12;12.15;;;1.70;;
59830;SDS011;45711;50.108;13.712;2023-11-25T09:28:37;9.05;;;1.60;;
59830;SDS011;45711;50.108;13.712;2023-11-25T09:31:04;21.58;;;1.67;;
59830;SDS011;45711;50.108;13.712;2023-11-25T09:33:30;19.45;;;2.25;;
59830;SDS011;45711;50.108;13.712;2023-11-25T09:35:55;11.38;;;2.30;;
59830;SDS011;45711;50.108;13.712;2023-11-25T09:38:21;27.77;;;3.53;;
59830;SDS011;45711;50.108;13.712;2023-11-25T09:40:49;27.92;;;2.95;;
59830;SDS011;45711;50.108;13.712;2023-11-25T09:43:17;19.23;;;2.75;;
59830;SDS011;45711;50.108;13.712;2023-11-25T09:45:43;18.70;;;2.35;;
59830;SDS011;45711;50.108;13.712;2023-11-25T09:48:11;6.00;;;1.23;;
59830;SDS011;45711;50.108;13.712;2023-11-25T09:50:37;2.35;;;0.98;;
59830;SDS011;45711;50.108;13.712;2023-11-25T09:53:03;12.88;;;1.55;;
59830;SDS011;45711;50.108;13.712;2023-11-25T09:55:39;5.40;;;1.15;;
59830;SDS011;45711;50.108;13.712;2023-11-25T09:58:08;5.22;;;1.20;;
59830;SDS011;45711;50.108;13.712;2023-11-25T10:00:35;4.35;;;1.52;;
59830;SDS011;45711;50.108;13.712;2023-11-25T10:03:03;4.93;;;1.10;;
59830;SDS011;45711;50.108;13.712;2023-11-25T10:05:33;5.00;;;1.27;;
59830;SDS011;45711;50.108;13.712;2023-11-25T10:07:59;3.55;;;0.85;;
59830;SDS011;45711;50.108;13.712;2023-11-25T10:10:25;3.35;;;0.90;;
59830;SDS011;45711;50.108;13.712;2023-11-25T10:12:53;3.38;;;1.15;;
59830;SDS011;45711;50.108;13.712;2023-11-25T10:15:19;5.93;;;0.98;;
59830;SDS011;45711;50.108;13.712;2023-11-25T10:17:45;3.17;;;0.95;;
59830;SDS011;45711;50.108;13.712;2023-11-25T10:20:11;2.72;;;1.08;;
59830;SDS011;45711;50.108;13.712;2023-11-25T10:22:47;3.40;;;1.30;;
59830;SDS011;45711;50.108;13.712;2023-11-25T10:25:15;5.13;;;0.90;;
59830;SDS011;45711;50.108;13.712;2023-11-25T10:27:42;3.00;;;1.10;;
59830;SDS011;45711;50.108;13.712;2023-11-25T10:30:11;2.72;;;1.20;;
59830;SDS011;45711;50.108;13.712;2023-11-25T10:32:39;7.07;;;3.00;;
59830;SDS011;45711;50.108;13.712;2023-11-25T10:35:05;5.75;;;2.25;;
59830;SDS011;45711;50.108;13.712;2023-11-25T10:37:33;6.03;;;1.02;;
59830;SDS011;45711;50.108;13.712;2023-11-25T10:40:00;4.65;;;1.15;;
59830;SDS011;45711;50.108;13.712;2023-11-25T10:42:27;6.55;;;1.50;;
59830;SDS011;45711;50.108;13.712;2023-11-25T10:44:53;5.90;;;1.15;;
59830;SDS011;45711;50.108;13.712;2023-11-25T10:47:28;6.85;;;1.60;;
59830;SDS011;45711;50.108;13.712;2023-11-25T10:49:54;1.80;;;0.90;;
59830;SDS011;45711;50.108;13.712;2023-11-25T10:52:21;4.70;;;1.00;;
59830;SDS011;45711;50.108;13.712;2023-11-25T10:54:47;1.90;;;0.90;;
59830;SDS011;45711;50.108;13.712;2023-11-25T10:57:15;4.65;;;1.60;;
59830;SDS011;45711;50.108;13.712;2023-11-25T10:59:43;3.67;;;0.95;;
59830;SDS011;45711;50.108;13.712;2023-11-25T11:02:11;6.07;;;1.05;;
59830;SDS011;45711;50.108;13.712;2023-11-25T11:04:45;5.35;;;1.40;;
59830;SDS011;45711;50.108;13.712;2023-11-25T11:07:14;3.97;;;1.10;;
59830;SDS011;45711;50.108;13.712;2023-11-25T11:09:41;5.57;;;1.13;;
59830;SDS011;45711;50.108;13.712;2023-11-25T11:12:09;4.72;;;1.08;;
59830;SDS011;45711;50.108;13.712;2023-11-25T11:14:53;2.77;;;1.03;;
59830;SDS011;45711;50.108;13.712;2023-11-25T11:17:27;5.28;;;1.55;;
59830;SDS011;45711;50.108;13.712;2023-11-25T11:20:02;3.88;;;0.90;;
59830;SDS011;45711;50.108;13.712;2023-11-25T11:22:30;3.55;;;1.25;;
59830;SDS011;45711;50.108;13.712;2023-11-25T11:25:00;2.53;;;1.20;;
59830;SDS011;45711;50.108;13.712;2023-11-25T11:27:34;4.25;;;1.20;;
59830;SDS011;45711;50.108;13.712;2023-11-25T11:30:08;2.33;;;0.90;;
59830;SDS011;45711;50.108;13.712;2023-11-25T11:32:43;4.32;;;1.25;;
59830;SDS011;45711;50.108;13.712;2023-11-25T11:35:25;4.72;;;1.10;;
59830;SDS011;45711;50.108;13.712;2023-11-25T11:38:03;2.72;;;1.20;;
59830;SDS011;45711;50.108;13.712;2023-11-25T11:40:58;4.30;;;0.98;;
59830;SDS011;45711;50.108;13.712;2023-11-25T11:43:24;4.65;;;1.13;;
59830;SDS011;45711;50.108;13.712;2023-11-25T11:45:52;4.40;;;1.15;;
59830;SDS011;45711;50.108;13.712;2023-11-25T11:48:17;4.70;;;1.10;;
59830;SDS011;45711;50.108;13.712;2023-11-25T11:50:52;4.65;;;1.20;;
59830;SDS011;45711;50.108;13.712;2023-11-25T11:53:21;7.75;;;1.00;;
59830;SDS011;45711;50.108;13.712;2023-11-25T11:55:49;4.13;;;1.00;;
59830;SDS011;45711;50.108;13.712;2023-11-25T11:58:17;1.58;;;0.80;;
59830;SDS011;45711;50.108;13.712;2023-11-25T12:00:48;4.15;;;0.85;;
59830;SDS011;45711;50.108;13.712;2023-11-25T12:03:19;4.72;;;1.20;;
59830;SDS011;45711;50.108;13.712;2023-11-25T12:05:45;5.45;;;1.35;;
59830;SDS011;45711;50.108;13.712;2023-11-25T12:08:12;3.05;;;1.05;;
59830;SDS011;45711;50.108;13.712;2023-11-25T12:10:37;3.72;;;0.82;;
59830;SDS011;45711;50.108;13.712;2023-11-25T12:13:04;7.07;;;1.23;;
59830;SDS011;45711;50.108;13.712;2023-11-25T12:15:30;5.03;;;1.25;;
59830;SDS011;45711;50.108;13.712;2023-11-25T12:17:56;3.45;;;1.08;;
59830;SDS011;45711;50.108;13.712;2023-11-25T12:20:24;6.43;;;1.45;;
59830;SDS011;45711;50.108;13.712;2023-11-25T12:22:51;3.13;;;1.00;;
59830;SDS011;45711;50.108;13.712;2023-11-25T12:25:17;3.63;;;0.90;;
59830;SDS011;45711;50.108;13.712;2023-11-25T12:27:46;4.75;;;1.20;;
59830;SDS011;45711;50.108;13.712;2023-11-25T12:30:15;6.95;;;1.13;;
59830;SDS011;45711;50.108;13.712;2023-11-25T12:32:41;3.40;;;0.95;;
59830;SDS011;45711;50.108;13.712;2023-11-25T12:35:07;3.88;;;1.15;;
59830;SDS011;45711;50.108;13.712;2023-11-25T12:37:39;6.80;;;1.30;;
59830;SDS011;45711;50.108;13.712;2023-11-25T12:40:22;3.72;;;1.20;;
59830;SDS011;45711;50.108;13.712;2023-11-25T12:42:54;5.07;;;1.10;;
59830;SDS011;45711;50.108;13.712;2023-11-25T12:45:50;3.75;;;0.93;;
59830;SDS011;45711;50.108;13.712;2023-11-25T12:48:28;7.20;;;1.30;;
59830;SDS011;45711;50.108;13.712;2023-11-25T12:50:58;2.22;;;0.98;;
59830;SDS011;45711;50.108;13.712;2023-11-25T12:53:52;3.13;;;1.30;;
59830;SDS011;45711;50.108;13.712;2023-11-25T12:56:27;2.75;;;0.90;;
59830;SDS011;45711;50.108;13.712;2023-11-25T12:58:56;4.95;;;1.58;;
59830;SDS011;45711;50.108;13.712;2023-11-25T13:01:24;7.70;;;1.52;;
59830;SDS011;45711;50.108;13.712;2023-11-25T13:03:52;3.67;;;1.30;;
59830;SDS011;45711;50.108;13.712;2023-11-25T13:06:20;3.90;;;1.35;;
59830;SDS011;45711;50.108;13.712;2023-11-25T13:08:52;7.45;;;1.60;;
59830;SDS011;45711;50.108;13.712;2023-11-25T13:11:18;6.45;;;1.20;;
59830;SDS011;45711;50.108;13.712;2023-11-25T13:13:44;6.40;;;1.63;;
59830;SDS011;45711;50.108;13.712;2023-11-25T13:16:10;4.63;;;2.67;;
59830;SDS011;45711;50.108;13.712;2023-11-25T13:18:37;8.13;;;1.20;;
59830;SDS011;45711;50.108;13.712;2023-11-25T13:21:10;8.73;;;1.30;;
59830;SDS011;45711;50.108;13.712;2023-11-25T13:23:36;7.57;;;1.25;;
59830;SDS011;45711;50.108;13.712;2023-11-25T13:26:04;3.63;;;1.40;;
59830;SDS011;45711;50.108;13.712;2023-11-25T13:28:30;9.40;;;1.75;;
59830;SDS011;45711;50.108;13.712;2023-11-25T13:31:02;5.40;;;1.67;;
59830;SDS011;45711;50.108;13.712;2023-11-25T13:33:30;5.43;;;1.20;;
59830;SDS011;45711;50.108;13.712;2023-11-25T13:35:56;6.07;;;1.70;;
59830;SDS011;45711;50.108;13.712;2023-11-25T13:38:21;7.97;;;2.05;;
59830;SDS011;45711;50.108;13.712;2023-11-25T13:40:47;9.25;;;1.63;;
59830;SDS011;45711;50.108;13.712;2023-11-25T13:43:14;4.28;;;1.88;;
59830;SDS011;45711;50.108;13.712;2023-11-25T13:45:42;4.22;;;2.03;;
59830;SDS011;45711;50.108;13.712;2023-11-25T13:48:08;8.98;;;2.40;;
59830;SDS011;45711;50.108;13.712;2023-11-25T13:50:35;6.32;;;1.90;;
59830;SDS011;45711;50.108;13.712;2023-11-25T13:53:01;4.72;;;1.35;;
59830;SDS011;45711;50.108;13.712;2023-11-25T13:55:30;6.85;;;2.40;;
59830;SDS011;45711;50.108;13.712;2023-11-25T13:57:57;5.40;;;2.42;;
59830;SDS011;45711;50.108;13.712;2023-11-25T14:00:24;8.45;;;2.05;;
59830;SDS011;45711;50.108;13.712;2023-11-25T14:02:50;8.90;;;3.15;;
59830;SDS011;45711;50.108;13.712;2023-11-25T14:05:23;3.05;;;1.42;;
59830;SDS011;45711;50.108;13.712;2023-11-25T14:07:51;10.02;;;2.83;;
59830;SDS011;45711;50.108;13.712;2023-11-25T14:10:18;6.10;;;2.65;;
59830;SDS011;45711;50.108;13.712;2023-11-25T14:12:44;10.00;;;2.70;;
59830;SDS011;45711;50.108;13.712;2023-11-25T14:15:10;7.60;;;2.60;;
59830;SDS011;45711;50.108;13.712;2023-11-25T14:17:38;7.78;;;2.90;;
59830;SDS011;45711;50.108;13.712;2023-11-25T14:20:07;13.68;;;4.13;;
59830;SDS011;45711;50.108;13.712;2023-11-25T14:22:41;6.88;;;2.40;;
59830;SDS011;45711;50.108;13.712;2023-11-25T14:25:09;8.48;;;2.58;;
59830;SDS011;45711;50.108;13.712;2023-11-25T14:27:35;8.98;;;2.30;;
59830;SDS011;45711;50.108;13.712;2023-11-25T14:30:00;7.53;;;2.70;;
59830;SDS011;45711;50.108;13.712;2023-11-25T14:32:26;9.50;;;2.58;;
59830;SDS011;45711;50.108;13.712;2023-11-25T14:34:54;7.20;;;2.60;;